Time;durP1;ratioP1;P1;durP2;ratioP2;P2;SDS_P1;SDS_P2;PMS_P1;PMS_P2;Temp;Humidity;BMP_temperature;BMP_pressure;BME280_temperature;BME280_humidity;BME280_pressure;Samples;Min_cycle;Max_cycle;Signal;HPM_P1;HPM_P2
2024/04/21 00:02:23;;;;;;;0.20;0.08;;;;;;;;;;5388382;26;20582;-79
2024/04/21 00:05:09;;;;;;;0.20;0.10;;;;;;;;;;5348680;26;20451;-78
2024/04/21 00:07:36;;;;;;;0.20;0.00;;;;;;;;;;5357551;26;19998;-79
2024/04/21 00:10:02;;;;;;;0.20;0.10;;;;;;;;;;5386181;26;20004;-77
2024/04/21 00:12:28;;;;;;;0.20;0.10;;;;;;;;;;5397538;26;20502;-80
2024/04/21 00:14:54;;;;;;;0.20;0.10;;;;;;;;;;5390466;26;20406;-78
2024/04/21 00:17:20;;;;;;;0.20;0.10;;;;;;;;;;5389097;26;20094;-79
2024/04/21 00:19:46;;;;;;;0.20;0.10;;;;;;;;;;5367340;26;20015;-77
2024/04/21 00:22:12;;;;;;;0.20;0.10;;;;;;;;;;5361383;26;20003;-77
2024/04/21 00:24:38;;;;;;;0.20;0.00;;;;;;;;;;5392430;26;21138;-79
2024/04/21 00:27:06;;;;;;;0.20;0.10;;;;;;;;;;5391836;26;20452;-80
2024/04/21 00:29:32;;;;;;;0.20;0.10;;;;;;;;;;5364531;26;20730;-78
2024/04/21 00:31:58;;;;;;;0.20;0.00;;;;;;;;;;5360720;26;20007;-78
2024/04/21 00:34:24;;;;;;;0.20;0.10;;;;;;;;;;5358844;26;20004;-78
2024/04/21 00:36:50;;;;;;;0.20;0.10;;;;;;;;;;5359334;26;20080;-78
2024/04/21 00:39:16;;;;;;;0.20;0.10;;;;;;;;;;5391955;26;20467;-77
2024/04/21 00:41:42;;;;;;;0.20;0.10;;;;;;;;;;5391004;26;20439;-77
2024/04/21 00:44:10;;;;;;;0.20;0.10;;;;;;;;;;5397832;26;19999;-79
2024/04/21 00:46:37;;;;;;;0.20;0.10;;;;;;;;;;5379763;26;20022;-79
2024/04/21 00:49:03;;;;;;;0.20;0.10;;;;;;;;;;5393180;26;20050;-78
2024/04/21 00:51:29;;;;;;;0.20;0.10;;;;;;;;;;5357298;26;20536;-77
2024/04/21 00:53:56;;;;;;;0.20;0.10;;;;;;;;;;5399712;26;20080;-76
2024/04/21 00:56:23;;;;;;;0.20;0.03;;;;;;;;;;5355677;26;20010;-78
2024/04/21 00:58:49;;;;;;;0.20;0.10;;;;;;;;;;5357468;26;20372;-78
2024/04/21 01:01:15;;;;;;;0.20;0.00;;;;;;;;;;5388913;26;20474;-73
2024/04/21 01:03:41;;;;;;;0.20;0.10;;;;;;;;;;5391054;26;20047;-78
2024/04/21 01:06:07;;;;;;;0.20;0.10;;;;;;;;;;5392446;26;20043;-77
2024/04/21 01:08:34;;;;;;;0.20;0.00;;;;;;;;;;5390913;26;20025;-75
2024/04/21 01:11:00;;;;;;;0.20;0.10;;;;;;;;;;5401390;26;20035;-78
2024/04/21 01:13:26;;;;;;;0.20;0.10;;;;;;;;;;5354199;26;20103;-78
2024/04/21 01:15:54;;;;;;;0.20;0.10;;;;;;;;;;5391130;26;20541;-77
2024/04/21 01:18:20;;;;;;;0.20;0.10;;;;;;;;;;5399710;26;20007;-77
2024/04/21 01:20:46;;;;;;;0.20;0.10;;;;;;;;;;5358051;26;20004;-78
2024/04/21 01:23:12;;;;;;;0.20;0.10;;;;;;;;;;5386852;26;20011;-77
2024/04/21 01:25:39;;;;;;;0.20;0.00;;;;;;;;;;5362777;26;19999;-78
2024/04/21 01:28:05;;;;;;;0.20;0.00;;;;;;;;;;5359227;26;20557;-77
2024/04/21 01:30:32;;;;;;;0.20;0.00;;;;;;;;;;5357392;26;19999;-77
2024/04/21 01:33:18;;;;;;;0.20;0.10;;;;;;;;;;5339295;26;20004;-78
2024/04/21 01:35:44;;;;;;;0.20;0.10;;;;;;;;;;5391828;26;19996;-77
2024/04/21 01:38:10;;;;;;;0.20;0.10;;;;;;;;;;5391399;26;20039;-78
2024/04/21 01:40:36;;;;;;;0.20;0.00;;;;;;;;;;5393637;26;20019;-78
2024/04/21 01:43:02;;;;;;;0.28;0.08;;;;;;;;;;5393576;26;20537;-77
2024/04/21 01:45:29;;;;;;;0.20;0.10;;;;;;;;;;5395644;26;19995;-78
2024/04/21 01:47:55;;;;;;;0.20;0.10;;;;;;;;;;5396702;26;21725;-78
2024/04/21 01:50:21;;;;;;;0.20;0.00;;;;;;;;;;5384984;26;20069;-79
2024/04/21 01:52:48;;;;;;;0.20;0.10;;;;;;;;;;5386880;26;20504;-78
2024/04/21 01:55:14;;;;;;;0.20;0.10;;;;;;;;;;5397541;26;20000;-76
2024/04/21 01:57:40;;;;;;;0.20;0.05;;;;;;;;;;5362158;26;20008;-79
2024/04/21 02:00:06;;;;;;;0.20;0.10;;;;;;;;;;5403523;26;20014;-79
2024/04/21 02:02:32;;;;;;;0.20;0.10;;;;;;;;;;5381299;26;19996;-79
2024/04/21 02:04:58;;;;;;;0.20;0.10;;;;;;;;;;5365144;26;20133;-79
2024/04/21 02:07:25;;;;;;;0.20;0.00;;;;;;;;;;5390631;26;20008;-77
2024/04/21 02:09:51;;;;;;;0.20;0.10;;;;;;;;;;5405262;26;20017;-77
2024/04/21 02:12:18;;;;;;;0.20;0.05;;;;;;;;;;5373999;26;20758;-77
2024/04/21 02:14:44;;;;;;;0.20;0.10;;;;;;;;;;5388193;26;20049;-80
2024/04/21 02:17:10;;;;;;;0.20;0.10;;;;;;;;;;5395768;26;20459;-79
2024/04/21 02:19:36;;;;;;;0.20;0.10;;;;;;;;;;5354310;26;19996;-79
2024/04/21 02:22:02;;;;;;;0.20;0.10;;;;;;;;;;5388897;26;20117;-77
2024/04/21 02:24:38;;;;;;;0.20;0.00;;;;;;;;;;5394774;26;19999;-78
2024/04/21 02:27:04;;;;;;;0.20;0.00;;;;;;;;;;5363389;26;20003;-77
2024/04/21 02:29:30;;;;;;;0.20;0.00;;;;;;;;;;5396742;26;20004;-79
2024/04/21 02:31:56;;;;;;;0.20;0.10;;;;;;;;;;5396229;26;20004;-79
2024/04/21 02:34:22;;;;;;;0.20;0.10;;;;;;;;;;5368919;26;20008;-78
2024/04/21 02:36:49;;;;;;;0.20;0.03;;;;;;;;;;5361526;26;20053;-79
2024/04/21 02:39:15;;;;;;;0.20;0.10;;;;;;;;;;5395611;26;20104;-79
2024/04/21 02:41:41;;;;;;;0.20;0.15;;;;;;;;;;5395417;26;20031;-78
2024/04/21 02:44:07;;;;;;;0.20;0.10;;;;;;;;;;5366614;26;20468;-80
2024/04/21 02:46:33;;;;;;;0.20;0.00;;;;;;;;;;5366510;26;20580;-78
2024/04/21 02:49:00;;;;;;;0.20;0.10;;;;;;;;;;5393671;26;20359;-80
2024/04/21 02:51:26;;;;;;;0.20;0.10;;;;;;;;;;5364401;26;20007;-81
2024/04/21 02:53:52;;;;;;;0.20;0.00;;;;;;;;;;5358964;26;20065;-79
2024/04/21 02:56:25;;;;;;;0.20;0.10;;;;;;;;;;5383944;26;20081;-79
2024/04/21 02:58:51;;;;;;;0.20;0.08;;;;;;;;;;5398578;26;20397;-79
2024/04/21 03:01:37;;;;;;;0.20;0.10;;;;;;;;;;5354997;26;20023;-79
2024/04/21 03:04:04;;;;;;;0.20;0.00;;;;;;;;;;5391401;26;20647;-77
2024/04/21 03:06:30;;;;;;;0.20;0.10;;;;;;;;;;5392290;26;20495;-81
2024/04/21 03:08:56;;;;;;;0.20;0.10;;;;;;;;;;5363111;26;20014;-80
2024/04/21 03:11:23;;;;;;;0.20;0.10;;;;;;;;;;5363594;26;20026;-79
2024/04/21 03:13:49;;;;;;;0.20;0.17;;;;;;;;;;5401498;26;20003;-79
2024/04/21 03:16:35;;;;;;;0.20;0.00;;;;;;;;;;5342246;26;20009;-79
2024/04/21 03:19:21;;;;;;;0.20;0.10;;;;;;;;;;5339033;26;21660;-81
2024/04/21 03:22:07;;;;;;;0.20;0.05;;;;;;;;;;5365123;26;20008;-80
2024/04/21 03:24:53;;;;;;;0.20;0.10;;;;;;;;;;5357019;26;20016;-79
2024/04/21 03:27:39;;;;;;;0.20;0.00;;;;;;;;;;5350633;26;20015;-81
2024/04/21 03:30:25;;;;;;;0.20;0.10;;;;;;;;;;5339239;26;20015;-80
2024/04/21 03:33:12;;;;;;;0.20;0.10;;;;;;;;;;5372167;26;20459;-81
2024/04/21 03:36:08;;;;;;;0.20;0.00;;;;;;;;;;5371180;26;20474;-82
2024/04/21 03:38:54;;;;;;;0.20;0.10;;;;;;;;;;5359260;26;20018;-82
2024/04/21 03:41:40;;;;;;;0.20;0.10;;;;;;;;;;5364011;26;20008;-79
2024/04/21 03:44:26;;;;;;;0.20;0.10;;;;;;;;;;5346607;26;20116;-80
2024/04/21 03:47:12;;;;;;;0.20;0.00;;;;;;;;;;5369960;26;20061;-81
2024/04/21 03:49:58;;;;;;;0.20;0.10;;;;;;;;;;5346768;26;20486;-81
2024/04/21 03:52:45;;;;;;;0.20;0.00;;;;;;;;;;5340635;26;20044;-79
2024/04/21 03:55:31;;;;;;;0.20;0.00;;;;;;;;;;5373890;26;20019;-79
2024/04/21 03:58:17;;;;;;;0.20;0.10;;;;;;;;;;5365191;26;20031;-80
2024/04/21 04:01:03;;;;;;;0.20;0.10;;;;;;;;;;5354497;26;19999;-81
2024/04/21 04:03:49;;;;;;;0.20;0.10;;;;;;;;;;5349958;26;20004;-81
2024/04/21 04:06:35;;;;;;;0.20;0.00;;;;;;;;;;5364585;26;20022;-79
2024/04/21 04:09:21;;;;;;;0.20;0.00;;;;;;;;;;5354987;26;20694;-79
2024/04/21 04:12:08;;;;;;;0.20;0.10;;;;;;;;;;5364029;26;20060;-82
2024/04/21 04:14:55;;;;;;;0.20;0.00;;;;;;;;;;5369953;26;20003;-82
2024/04/21 04:17:41;;;;;;;0.20;0.10;;;;;;;;;;5362278;26;20062;-81
2024/04/21 04:20:27;;;;;;;0.20;0.10;;;;;;;;;;5362630;26;20019;-79
2024/04/21 04:23:13;;;;;;;0.20;0.10;;;;;;;;;;5364555;26;20354;-82
2024/04/21 04:25:59;;;;;;;0.20;0.10;;;;;;;;;;5346138;26;20011;-82
2024/04/21 04:28:45;;;;;;;0.20;0.10;;;;;;;;;;5343646;26;20011;-81
2024/04/21 04:31:31;;;;;;;0.20;0.10;;;;;;;;;;5348376;26;20433;-82
2024/04/21 04:33:57;;;;;;;0.20;0.10;;;;;;;;;;5357522;26;20007;-81
2024/04/21 04:36:23;;;;;;;0.20;0.10;;;;;;;;;;5395278;26;20460;-82
2024/04/21 04:38:49;;;;;;;0.20;0.00;;;;;;;;;;5395885;26;20314;-81
2024/04/21 04:41:36;;;;;;;0.20;0.00;;;;;;;;;;5370369;26;20102;-80
2024/04/21 04:44:22;;;;;;;0.20;0.10;;;;;;;;;;5368771;26;20053;-81
2024/04/21 04:47:08;;;;;;;0.20;0.05;;;;;;;;;;5335653;26;20775;-82
2024/04/21 04:49:34;;;;;;;0.20;0.00;;;;;;;;;;5388984;26;20008;-81
2024/04/21 04:52:20;;;;;;;0.20;0.10;;;;;;;;;;5363940;26;20011;-81
2024/04/21 04:55:06;;;;;;;0.20;0.05;;;;;;;;;;5369743;26;20004;-80
2024/04/21 04:57:32;;;;;;;0.20;0.00;;;;;;;;;;5355911;26;20080;-82
2024/04/21 04:59:59;;;;;;;0.20;0.03;;;;;;;;;;5390475;26;20066;-82
2024/04/21 05:02:25;;;;;;;0.20;0.10;;;;;;;;;;5389246;26;20491;-81
2024/04/21 05:04:51;;;;;;;0.20;0.10;;;;;;;;;;5437168;21;20025;-77
2024/04/21 05:07:18;;;;;;;0.20;0.10;;;;;;;;;;5392401;26;20006;-78
2024/04/21 05:09:44;;;;;;;0.20;0.00;;;;;;;;;;5429376;26;20022;-79
2024/04/21 05:12:11;;;;;;;0.20;0.10;;;;;;;;;;5425164;26;20351;-74
2024/04/21 05:14:38;;;;;;;0.20;0.10;;;;;;;;;;5423975;26;19998;-78
2024/04/21 05:17:06;;;;;;;0.20;0.00;;;;;;;;;;5457163;26;20661;-77
2024/04/21 05:19:32;;;;;;;0.20;0.00;;;;;;;;;;5458963;26;20013;-79
2024/04/21 05:21:58;;;;;;;0.20;0.00;;;;;;;;;;5457015;26;20020;-79
2024/04/21 05:24:24;;;;;;;0.20;0.13;;;;;;;;;;5459913;26;19998;-78
2024/04/21 05:26:51;;;;;;;0.20;0.10;;;;;;;;;;5456929;26;20040;-78
2024/04/21 05:29:17;;;;;;;0.20;0.10;;;;;;;;;;5426028;26;20017;-78
2024/04/21 05:31:43;;;;;;;0.20;0.00;;;;;;;;;;5425761;26;20021;-78
2024/04/21 05:34:09;;;;;;;0.20;0.10;;;;;;;;;;5446485;26;20083;-78
2024/04/21 05:36:35;;;;;;;0.20;0.10;;;;;;;;;;5423157;26;20012;-77
2024/04/21 05:39:01;;;;;;;0.20;0.10;;;;;;;;;;5418364;26;20073;-78
2024/04/21 05:41:27;;;;;;;0.20;0.10;;;;;;;;;;5459540;26;20056;-77
2024/04/21 05:43:53;;;;;;;0.20;0.10;;;;;;;;;;5425946;26;20002;-78
2024/04/21 05:46:19;;;;;;;0.20;0.10;;;;;;;;;;5458156;26;20002;-78
2024/04/21 05:48:46;;;;;;;0.20;0.10;;;;;;;;;;5421410;26;20077;-78
2024/04/21 05:51:12;;;;;;;0.20;0.10;;;;;;;;;;5461327;26;20006;-79
2024/04/21 05:53:38;;;;;;;0.20;0.10;;;;;;;;;;5446963;26;20002;-77
2024/04/21 05:56:04;;;;;;;0.20;0.00;;;;;;;;;;5453734;26;20074;-78
2024/04/21 05:58:31;;;;;;;0.20;0.10;;;;;;;;;;5430336;26;19994;-79
2024/04/21 06:00:57;;;;;;;0.20;0.10;;;;;;;;;;5423768;26;20010;-78
2024/04/21 06:03:23;;;;;;;0.20;0.10;;;;;;;;;;5426745;26;20123;-77
2024/04/21 06:05:49;;;;;;;0.20;0.00;;;;;;;;;;5461398;26;20913;-79
2024/04/21 06:08:15;;;;;;;0.20;0.10;;;;;;;;;;5464575;26;20006;-77
2024/04/21 06:10:41;;;;;;;0.20;0.10;;;;;;;;;;5429850;26;20022;-77
2024/04/21 06:13:07;;;;;;;0.20;0.10;;;;;;;;;;5426932;26;19995;-79
2024/04/21 06:15:33;;;;;;;0.38;0.38;;;;;;;;;;5465869;26;19994;-78
2024/04/21 06:18:00;;;;;;;0.20;0.10;;;;;;;;;;5460362;26;19998;-78
2024/04/21 06:20:26;;;;;;;0.20;0.10;;;;;;;;;;5464890;26;20047;-78
2024/04/21 06:22:53;;;;;;;0.20;0.10;;;;;;;;;;5431424;26;20357;-82
2024/04/21 06:25:19;;;;;;;0.20;0.10;;;;;;;;;;5427716;26;20752;-78
2024/04/21 06:27:45;;;;;;;0.20;0.08;;;;;;;;;;5422118;26;20374;-77
2024/04/21 06:30:12;;;;;;;0.20;0.00;;;;;;;;;;5421891;26;20078;-77
2024/04/21 06:32:38;;;;;;;0.20;0.00;;;;;;;;;;5463633;26;20399;-77
2024/04/21 06:35:04;;;;;;;0.20;0.10;;;;;;;;;;5429245;26;20013;-77
2024/04/21 06:37:30;;;;;;;0.20;0.05;;;;;;;;;;5428436;26;19998;-77
2024/04/21 06:39:56;;;;;;;0.20;0.10;;;;;;;;;;5461912;26;20001;-77
2024/04/21 06:42:22;;;;;;;0.20;0.00;;;;;;;;;;5467595;26;20016;-78
2024/04/21 06:44:48;;;;;;;0.20;0.10;;;;;;;;;;5431696;26;20346;-78
2024/04/21 06:47:14;;;;;;;0.20;0.10;;;;;;;;;;5434166;26;20006;-76
2024/04/21 06:49:41;;;;;;;0.20;0.10;;;;;;;;;;5463251;26;20010;-76
2024/04/21 06:52:07;;;;;;;0.20;0.10;;;;;;;;;;5428522;26;22598;-77
2024/04/21 06:54:33;;;;;;;0.20;0.10;;;;;;;;;;5430556;26;19994;-77
2024/04/21 06:56:59;;;;;;;0.20;0.10;;;;;;;;;;5427540;26;19999;-78
2024/04/21 06:59:25;;;;;;;0.20;0.13;;;;;;;;;;5431067;26;19994;-77
2024/04/21 07:01:52;;;;;;;0.20;0.00;;;;;;;;;;5461656;26;20002;-79
2024/04/21 07:04:18;;;;;;;0.20;0.00;;;;;;;;;;5457630;26;20010;-78
2024/04/21 07:06:44;;;;;;;0.20;0.10;;;;;;;;;;5463919;26;19998;-78
2024/04/21 07:09:10;;;;;;;0.85;0.32;;;;;;;;;;5458216;26;20070;-77
2024/04/21 07:11:36;;;;;;;0.20;0.10;;;;;;;;;;5429429;26;19994;-83
2024/04/21 07:14:03;;;;;;;0.20;0.10;;;;;;;;;;5462173;26;20002;-78
2024/04/21 07:16:29;;;;;;;0.20;0.10;;;;;;;;;;5464506;26;19994;-78
2024/04/21 07:18:56;;;;;;;0.20;0.10;;;;;;;;;;5424094;26;20002;-77
2024/04/21 07:21:22;;;;;;;0.20;0.13;;;;;;;;;;5466254;26;20005;-77
2024/04/21 07:23:48;;;;;;;0.20;0.10;;;;;;;;;;5461095;26;20051;-78
2024/04/21 07:26:14;;;;;;;0.20;0.10;;;;;;;;;;5430322;26;20006;-79
2024/04/21 07:28:41;;;;;;;0.20;0.10;;;;;;;;;;5424240;26;20013;-78
2024/04/21 07:31:07;;;;;;;0.20;0.10;;;;;;;;;;5428886;26;21601;-77
2024/04/21 07:33:33;;;;;;;0.20;0.10;;;;;;;;;;5435558;26;20474;-77
2024/04/21 07:35:59;;;;;;;0.20;0.10;;;;;;;;;;5457188;26;20002;-78
2024/04/21 07:38:25;;;;;;;0.20;0.10;;;;;;;;;;5465722;26;20542;-77
2024/04/21 07:40:52;;;;;;;0.20;0.10;;;;;;;;;;5471901;26;19994;-79
2024/04/21 07:43:18;;;;;;;0.20;0.00;;;;;;;;;;5473241;26;20638;-77
2024/04/21 07:45:46;;;;;;;0.20;0.10;;;;;;;;;;5421634;26;20596;-76
2024/04/21 07:48:12;;;;;;;0.20;0.00;;;;;;;;;;5461257;26;20185;-78
2024/04/21 07:50:38;;;;;;;0.20;0.00;;;;;;;;;;5461423;26;20116;-75
2024/04/21 07:53:04;;;;;;;0.20;0.10;;;;;;;;;;5466750;26;19999;-77
2024/04/21 07:55:31;;;;;;;0.20;0.10;;;;;;;;;;5441289;26;20485;-77
2024/04/21 07:57:57;;;;;;;0.20;0.10;;;;;;;;;;5432882;26;20002;-76
2024/04/21 08:00:23;;;;;;;0.20;0.10;;;;;;;;;;5463146;26;19998;-79
2024/04/21 08:02:49;;;;;;;0.20;0.10;;;;;;;;;;5461220;26;19994;-77
2024/04/21 08:05:15;;;;;;;0.20;0.10;;;;;;;;;;5429083;26;20047;-76
2024/04/21 08:07:42;;;;;;;0.20;0.10;;;;;;;;;;5432147;26;20502;-76
2024/04/21 08:10:08;;;;;;;0.20;0.00;;;;;;;;;;5466508;26;20015;-77
2024/04/21 08:12:34;;;;;;;0.20;0.10;;;;;;;;;;5468440;26;20002;-77
2024/04/21 08:15:05;;;;;;;0.20;0.10;;;;;;;;;;5467917;26;20347;-78
2024/04/21 08:17:31;;;;;;;0.20;0.00;;;;;;;;;;5437161;26;20776;-77
2024/04/21 08:19:58;;;;;;;0.20;0.10;;;;;;;;;;5462501;26;20013;-75
2024/04/21 08:22:24;;;;;;;0.20;0.10;;;;;;;;;;5468787;26;22739;-77
2024/04/21 08:24:50;;;;;;;0.20;0.10;;;;;;;;;;5465822;26;20002;-77
2024/04/21 08:27:16;;;;;;;0.20;0.10;;;;;;;;;;5428434;26;20009;-76
2024/04/21 08:29:43;;;;;;;0.20;0.00;;;;;;;;;;5466631;26;20013;-77
2024/04/21 08:32:09;;;;;;;0.20;0.10;;;;;;;;;;5469065;26;20515;-78
2024/04/21 08:34:36;;;;;;;0.20;0.10;;;;;;;;;;5438849;26;20469;-76
2024/04/21 08:37:02;;;;;;;0.20;0.00;;;;;;;;;;5461368;26;20436;-79
2024/04/21 08:39:28;;;;;;;1.30;0.45;;;;;;;;;;5430387;26;20002;-77
2024/04/21 08:41:56;;;;;;;0.20;0.10;;;;;;;;;;5466800;26;20006;-76
2024/04/21 08:44:23;;;;;;;0.20;0.00;;;;;;;;;;5469866;26;21366;-74
2024/04/21 08:46:50;;;;;;;0.47;0.45;;;;;;;;;;5473195;26;20454;-77
2024/04/21 08:49:16;;;;;;;0.73;0.20;;;;;;;;;;5475181;26;20003;-78
2024/04/21 08:51:44;;;;;;;0.20;0.10;;;;;;;;;;5473021;26;19998;-77
2024/04/21 08:54:10;;;;;;;0.20;0.10;;;;;;;;;;5433436;26;20013;-78
2024/04/21 08:56:37;;;;;;;0.20;0.10;;;;;;;;;;5464222;26;20007;-75
2024/04/21 08:59:03;;;;;;;0.20;0.10;;;;;;;;;;5475236;26;20469;-78
2024/04/21 09:01:29;;;;;;;0.22;0.13;;;;;;;;;;5476288;26;19994;-76
2024/04/21 09:03:56;;;;;;;0.20;0.08;;;;;;;;;;5466559;26;20006;-77
2024/04/21 09:06:26;;;;;;;0.20;0.10;;;;;;;;;;5440354;26;20002;-75
2024/04/21 09:08:53;;;;;;;0.20;0.00;;;;;;;;;;5443704;26;20009;-76
2024/04/21 09:11:19;;;;;;;0.20;0.10;;;;;;;;;;5472276;26;20458;-78
2024/04/21 09:13:45;;;;;;;0.20;0.10;;;;;;;;;;5444354;26;20013;-76
2024/04/21 09:16:11;;;;;;;0.20;0.10;;;;;;;;;;5469496;26;20002;-76
2024/04/21 09:18:38;;;;;;;0.35;0.35;;;;;;;;;;5467871;26;19995;-77
2024/04/21 09:21:05;;;;;;;0.20;0.10;;;;;;;;;;5464670;26;20015;-77
2024/04/21 09:23:32;;;;;;;0.20;0.10;;;;;;;;;;5425796;26;19998;-79
2024/04/21 09:25:58;;;;;;;0.20;0.10;;;;;;;;;;5460796;26;20008;-75
2024/04/21 09:28:24;;;;;;;0.20;0.10;;;;;;;;;;5462144;26;20030;-76
2024/04/21 09:30:51;;;;;;;0.20;0.00;;;;;;;;;;5468237;26;20010;-76
2024/04/21 09:33:17;;;;;;;0.20;0.10;;;;;;;;;;5468127;26;20006;-76
2024/04/21 09:35:43;;;;;;;0.20;0.10;;;;;;;;;;5470545;26;20007;-76
2024/04/21 09:38:09;;;;;;;0.20;0.10;;;;;;;;;;5400001;26;20079;-78
2024/04/21 09:40:36;;;;;;;0.20;0.00;;;;;;;;;;5470757;26;20012;-77
2024/04/21 09:43:03;;;;;;;0.20;0.00;;;;;;;;;;5436328;26;20009;-77
2024/04/21 09:45:29;;;;;;;0.20;0.00;;;;;;;;;;5442632;26;20006;-76
2024/04/21 09:47:58;;;;;;;0.20;0.10;;;;;;;;;;5467616;26;19994;-74
2024/04/21 09:50:25;;;;;;;0.20;0.03;;;;;;;;;;5464985;26;20010;-75
2024/04/21 09:52:57;;;;;;;0.20;0.10;;;;;;;;;;5474360;26;20014;-75
2024/04/21 09:55:24;;;;;;;0.20;0.10;;;;;;;;;;5459329;26;20458;-78
2024/04/21 09:57:56;;;;;;;0.20;0.00;;;;;;;;;;5445401;26;20119;-77
2024/04/21 10:00:24;;;;;;;0.20;0.10;;;;;;;;;;5469295;26;19994;-79
2024/04/21 10:02:52;;;;;;;0.20;0.00;;;;;;;;;;5437713;26;20021;-76
2024/04/21 10:05:19;;;;;;;0.20;0.10;;;;;;;;;;5427202;26;20006;-79
2024/04/21 10:07:46;;;;;;;0.20;0.10;;;;;;;;;;5464863;26;20006;-76
2024/04/21 10:10:19;;;;;;;0.20;0.10;;;;;;;;;;5430857;26;20470;-77
2024/04/21 10:12:46;;;;;;;0.20;0.05;;;;;;;;;;5460170;26;19995;-78
2024/04/21 10:15:13;;;;;;;0.20;0.10;;;;;;;;;;5458630;26;20504;-77
2024/04/21 10:17:39;;;;;;;0.20;0.13;;;;;;;;;;5440974;26;20006;-77
2024/04/21 10:20:09;;;;;;;0.20;0.20;;;;;;;;;;5464668;26;20005;-78
2024/04/21 10:22:37;;;;;;;0.20;0.15;;;;;;;;;;5440765;26;20010;-77
2024/04/21 10:25:03;;;;;;;0.20;0.00;;;;;;;;;;5431034;26;20006;-77
2024/04/21 10:27:29;;;;;;;0.20;0.17;;;;;;;;;;5462308;26;20005;-75
2024/04/21 10:29:56;;;;;;;0.20;0.10;;;;;;;;;;5469384;26;19998;-77
2024/04/21 10:32:25;;;;;;;0.20;0.10;;;;;;;;;;5439494;26;20006;-74
2024/04/21 10:34:52;;;;;;;0.20;0.10;;;;;;;;;;5432490;26;19995;-77
2024/04/21 10:37:25;;;;;;;0.20;0.10;;;;;;;;;;5468840;26;19995;-77
2024/04/21 10:39:51;;;;;;;0.20;0.00;;;;;;;;;;5440781;26;19995;-77
2024/04/21 10:42:18;;;;;;;0.20;0.10;;;;;;;;;;5438365;26;19994;-76
2024/04/21 10:44:44;;;;;;;0.20;0.10;;;;;;;;;;5474601;26;19998;-74
2024/04/21 10:47:10;;;;;;;0.20;0.10;;;;;;;;;;5452210;26;20058;-76
2024/04/21 10:49:36;;;;;;;0.20;0.10;;;;;;;;;;5440210;26;19998;-76
2024/04/21 10:52:02;;;;;;;0.20;0.10;;;;;;;;;;5437941;26;20018;-75
2024/04/21 10:54:30;;;;;;;0.20;0.10;;;;;;;;;;5445483;26;20017;-76
2024/04/21 10:56:56;;;;;;;0.20;0.10;;;;;;;;;;5471122;26;20023;-76
2024/04/21 10:59:22;;;;;;;0.20;0.10;;;;;;;;;;5437272;26;20772;-75
2024/04/21 11:01:48;;;;;;;0.20;0.10;;;;;;;;;;5460694;26;20790;-77
2024/04/21 11:04:14;;;;;;;0.20;0.10;;;;;;;;;;5461744;21;20021;-80
2024/04/21 11:06:40;;;;;;;0.20;0.00;;;;;;;;;;5424804;26;20617;-81
2024/04/21 11:09:10;;;;;;;0.20;0.03;;;;;;;;;;5389044;26;20009;-79
2024/04/21 11:11:37;;;;;;;0.20;0.08;;;;;;;;;;5402312;26;20009;-78
2024/04/21 11:14:03;;;;;;;0.20;0.00;;;;;;;;;;5427954;26;19998;-81
2024/04/21 11:16:30;;;;;;;0.20;0.10;;;;;;;;;;5430821;26;20018;-80
2024/04/21 11:19:00;;;;;;;0.20;0.10;;;;;;;;;;5415143;26;19995;-79
2024/04/21 11:21:26;;;;;;;0.20;0.05;;;;;;;;;;5406264;26;20000;-80
2024/04/21 11:23:53;;;;;;;0.20;0.00;;;;;;;;;;5409863;26;20011;-80
2024/04/21 11:26:20;;;;;;;0.22;0.05;;;;;;;;;;5425769;26;20006;-79
2024/04/21 11:28:46;;;;;;;0.20;0.10;;;;;;;;;;5438146;26;20006;-80
2024/04/21 11:31:13;;;;;;;0.20;0.10;;;;;;;;;;5434400;26;19998;-79
2024/04/21 11:33:39;;;;;;;0.20;0.10;;;;;;;;;;5380685;26;19999;-81
2024/04/21 11:36:18;;;;;;;2.45;1.55;;;;;;;;;;5399737;26;20013;-80
2024/04/21 11:38:45;;;;;;;0.20;0.10;;;;;;;;;;5406640;26;20048;-80
2024/04/21 11:41:12;;;;;;;0.20;0.10;;;;;;;;;;5446187;26;20009;-79
2024/04/21 11:43:39;;;;;;;0.20;0.10;;;;;;;;;;5426292;26;20506;-79
2024/04/21 11:46:05;;;;;;;0.20;0.10;;;;;;;;;;5441860;26;20022;-80
2024/04/21 11:48:35;;;;;;;0.20;0.10;;;;;;;;;;5405061;26;20467;-82
2024/04/21 11:51:02;;;;;;;0.20;0.10;;;;;;;;;;5405451;26;20451;-78
2024/04/21 11:53:28;;;;;;;0.20;0.10;;;;;;;;;;5408636;26;19996;-80
2024/04/21 11:55:54;;;;;;;0.20;0.10;;;;;;;;;;5431739;26;20002;-81
2024/04/21 11:58:20;;;;;;;0.95;0.47;;;;;;;;;;5436081;26;22513;-80
2024/04/21 12:00:46;;;;;;;0.20;0.00;;;;;;;;;;5400665;26;20013;-78
2024/04/21 12:03:12;;;;;;;0.20;0.10;;;;;;;;;;5426066;26;19994;-79
2024/04/21 12:05:39;;;;;;;0.20;0.03;;;;;;;;;;5393648;26;19996;-79
2024/04/21 12:08:06;;;;;;;0.20;0.10;;;;;;;;;;5407704;26;20006;-81
2024/04/21 12:10:32;;;;;;;0.20;0.00;;;;;;;;;;5429012;26;19999;-82
2024/04/21 12:12:58;;;;;;;0.40;0.30;;;;;;;;;;5433872;26;19995;-79
2024/04/21 12:15:24;;;;;;;0.20;0.00;;;;;;;;;;5431440;26;20029;-79
2024/04/21 12:17:51;;;;;;;0.20;0.00;;;;;;;;;;5396059;26;20000;-80
2024/04/21 12:20:17;;;;;;;0.20;0.00;;;;;;;;;;5423748;26;20347;-78
2024/04/21 12:22:49;;;;;;;0.20;0.10;;;;;;;;;;5395835;26;20006;-78
2024/04/21 12:25:16;;;;;;;0.20;0.10;;;;;;;;;;5399824;26;20549;-80
2024/04/21 12:27:43;;;;;;;0.20;0.20;;;;;;;;;;5433740;26;20224;-79
2024/04/21 12:30:12;;;;;;;0.20;0.10;;;;;;;;;;5425159;26;20003;-78
2024/04/21 12:32:38;;;;;;;0.20;0.00;;;;;;;;;;5402894;26;20377;-79
2024/04/21 12:35:04;;;;;;;0.20;0.10;;;;;;;;;;5432423;26;20009;-82
2024/04/21 12:37:30;;;;;;;0.20;0.10;;;;;;;;;;5407145;26;20005;-81
2024/04/21 12:39:56;;;;;;;0.20;0.10;;;;;;;;;;5401863;26;20007;-80
2024/04/21 12:42:23;;;;;;;0.20;0.00;;;;;;;;;;5407273;26;20010;-81
2024/04/21 12:44:49;;;;;;;0.20;0.10;;;;;;;;;;5427354;26;20455;-83
2024/04/21 12:47:16;;;;;;;0.20;0.00;;;;;;;;;;5432537;26;20023;-82
2024/04/21 12:49:42;;;;;;;0.20;0.10;;;;;;;;;;5400562;26;20007;-79
2024/04/21 12:52:09;;;;;;;0.20;0.00;;;;;;;;;;5433822;26;20042;-81
2024/04/21 12:54:35;;;;;;;0.20;0.10;;;;;;;;;;5400315;26;19999;-79
2024/04/21 12:57:01;;;;;;;0.20;0.10;;;;;;;;;;5437770;26;19995;-80
2024/04/21 12:59:28;;;;;;;0.20;0.10;;;;;;;;;;5400325;26;20351;-79
2024/04/21 13:01:54;;;;;;;0.43;0.22;;;;;;;;;;5430935;26;20467;-78
2024/04/21 13:04:21;;;;;;;0.38;0.32;;;;;;;;;;5401619;26;20003;-79
2024/04/21 13:06:48;;;;;;;0.60;0.30;;;;;;;;;;5401396;26;20335;-80
2024/04/21 13:09:14;;;;;;;0.20;0.10;;;;;;;;;;5407046;26;20011;-80
2024/04/21 13:11:40;;;;;;;0.20;0.10;;;;;;;;;;5424054;26;20466;-79
2024/04/21 13:14:07;;;;;;;0.20;0.10;;;;;;;;;;5430460;26;20017;-78
2024/04/21 13:16:33;;;;;;;0.20;0.05;;;;;;;;;;5399181;26;20035;-80
2024/04/21 13:19:07;;;;;;;0.20;0.00;;;;;;;;;;5400943;26;20006;-81
2024/04/21 13:21:33;;;;;;;0.20;0.00;;;;;;;;;;5424002;26;20054;-80
2024/04/21 13:23:59;;;;;;;0.20;0.10;;;;;;;;;;5426614;26;20012;-80
2024/04/21 13:26:26;;;;;;;0.20;0.08;;;;;;;;;;5431084;26;20025;-80
2024/04/21 13:28:52;;;;;;;0.20;0.10;;;;;;;;;;5427342;26;20074;-81
2024/04/21 13:31:18;;;;;;;0.20;0.05;;;;;;;;;;5425064;26;20009;-80
2024/04/21 13:33:44;;;;;;;0.20;0.10;;;;;;;;;;5432540;26;20015;-78
2024/04/21 13:36:10;;;;;;;0.20;0.00;;;;;;;;;;5423091;26;20027;-79
2024/04/21 13:38:36;;;;;;;0.20;0.10;;;;;;;;;;5410012;26;20002;-81
2024/04/21 13:41:02;;;;;;;0.73;0.68;;;;;;;;;;5423381;26;20003;-79
2024/04/21 13:43:29;;;;;;;0.20;0.10;;;;;;;;;;5398299;26;20003;-82
2024/04/21 13:45:55;;;;;;;0.20;0.00;;;;;;;;;;5426033;26;19996;-80
2024/04/21 13:48:21;;;;;;;0.20;0.00;;;;;;;;;;5401445;26;20007;-80
2024/04/21 13:50:47;;;;;;;0.20;0.10;;;;;;;;;;5434604;26;19995;-80
2024/04/21 13:53:13;;;;;;;0.20;0.10;;;;;;;;;;5421607;26;19998;-79
2024/04/21 13:55:40;;;;;;;0.20;0.10;;;;;;;;;;5393124;26;20396;-82
2024/04/21 13:58:07;;;;;;;0.20;0.10;;;;;;;;;;5429300;26;19995;-79
2024/04/21 14:00:33;;;;;;;0.20;0.10;;;;;;;;;;5429326;26;20011;-81
2024/04/21 14:02:59;;;;;;;0.20;0.00;;;;;;;;;;5386804;26;20000;-80
2024/04/21 14:05:25;;;;;;;0.20;0.10;;;;;;;;;;5396938;26;20002;-80
2024/04/21 14:07:51;;;;;;;0.20;0.03;;;;;;;;;;5425266;26;19995;-81
2024/04/21 14:10:18;;;;;;;0.20;0.10;;;;;;;;;;5395797;26;20448;-81
2024/04/21 14:12:44;;;;;;;0.20;0.00;;;;;;;;;;5428132;26;20022;-80
2024/04/21 14:15:10;;;;;;;0.20;0.10;;;;;;;;;;5430161;26;20016;-83
2024/04/21 14:17:36;;;;;;;0.20;0.00;;;;;;;;;;5424621;26;19995;-78
2024/04/21 14:20:03;;;;;;;0.20;0.10;;;;;;;;;;5395295;26;20007;-80
2024/04/21 14:22:29;;;;;;;0.20;0.10;;;;;;;;;;5394083;26;20057;-81
2024/04/21 14:24:58;;;;;;;0.20;0.10;;;;;;;;;;5397970;26;20011;-82
2024/04/21 14:27:25;;;;;;;0.20;0.10;;;;;;;;;;5431730;26;20069;-81
2024/04/21 14:29:51;;;;;;;0.20;0.10;;;;;;;;;;5396450;26;19999;-81
2024/04/21 14:32:17;;;;;;;0.20;0.00;;;;;;;;;;5428230;26;20023;-79
2024/04/21 14:34:43;;;;;;;0.20;0.10;;;;;;;;;;5398519;26;20007;-80
2024/04/21 14:37:09;;;;;;;0.20;0.10;;;;;;;;;;5425116;26;19995;-80
2024/04/21 14:39:36;;;;;;;0.20;0.00;;;;;;;;;;5426720;26;20015;-78
2024/04/21 14:42:02;;;;;;;0.20;0.00;;;;;;;;;;5426303;26;20006;-79
2024/04/21 14:44:28;;;;;;;0.20;0.10;;;;;;;;;;5403828;26;20069;-83
2024/04/21 14:46:55;;;;;;;0.20;0.10;;;;;;;;;;5427733;26;20560;-79
2024/04/21 14:49:21;;;;;;;0.20;0.10;;;;;;;;;;5424626;26;20013;-79
2024/04/21 14:51:47;;;;;;;0.20;0.10;;;;;;;;;;5431468;26;20002;-79